createdAt,value
2017-10-24T00:01:32.305Z,3.33
2017-10-24T00:04:07.976Z,3.72
2017-10-24T00:06:35.205Z,2.35
2017-10-24T00:09:01.550Z,5.05
2017-10-24T00:11:27.928Z,2.58
2017-10-24T00:13:54.302Z,4.70
2017-10-24T00:16:20.620Z,4.12
2017-10-24T00:18:47.099Z,7.50
2017-10-24T00:21:13.396Z,1.60
2017-10-24T00:23:39.722Z,2.40
2017-10-24T00:26:06.382Z,1.90
2017-10-24T00:28:32.730Z,3.15
2017-10-24T00:30:59.152Z,3.00
2017-10-24T00:33:25.468Z,2.30
2017-10-24T00:35:51.930Z,3.72
2017-10-24T00:38:18.236Z,2.20
2017-10-24T00:40:44.591Z,2.05
2017-10-24T00:43:10.922Z,2.42
2017-10-24T00:45:37.372Z,2.92
2017-10-24T00:48:03.684Z,2.08
2017-10-24T00:50:29.956Z,6.72
2017-10-24T00:52:56.424Z,2.05
2017-10-24T00:55:22.802Z,2.37
2017-10-24T00:57:49.115Z,1.23
2017-10-24T01:00:19.459Z,2.05
2017-10-24T01:02:45.771Z,2.25
2017-10-24T01:05:12.124Z,1.67
2017-10-24T01:07:38.517Z,2.12
2017-10-24T01:10:04.842Z,2.35
2017-10-24T01:12:31.194Z,1.23
2017-10-24T01:14:57.567Z,2.58
2017-10-24T01:17:23.856Z,3.30
2017-10-24T01:19:50.207Z,1.98
2017-10-24T01:22:16.510Z,3.28
2017-10-24T01:24:42.871Z,1.52
2017-10-24T01:27:09.182Z,1.70
2017-10-24T01:29:35.511Z,2.55
2017-10-24T01:32:01.845Z,2.40
2017-10-24T01:34:28.221Z,4.70
2017-10-24T01:36:54.495Z,2.22
2017-10-24T01:39:20.849Z,2.03
2017-10-24T01:41:47.179Z,2.35
2017-10-24T01:44:13.511Z,2.22
2017-10-24T01:46:39.856Z,3.03
2017-10-24T01:49:06.188Z,2.47
2017-10-24T01:51:32.498Z,2.72
2017-10-24T01:53:58.826Z,3.08
2017-10-24T01:56:25.877Z,4.45
2017-10-24T01:58:52.216Z,6.90
2017-10-24T02:01:18.557Z,5.57
2017-10-24T02:03:44.866Z,3.70
2017-10-24T02:06:11.454Z,4.05
2017-10-24T02:08:41.654Z,4.75
2017-10-24T02:11:07.984Z,4.53
2017-10-24T02:13:34.337Z,14.13
2017-10-24T02:16:00.642Z,2.55
2017-10-24T02:18:26.980Z,4.00
2017-10-24T02:20:53.402Z,3.22
2017-10-24T02:23:19.738Z,3.45
2017-10-24T02:25:46.055Z,3.97
2017-10-24T02:28:12.409Z,4.85
2017-10-24T02:30:38.753Z,4.37
2017-10-24T02:33:05.175Z,3.20
2017-10-24T02:35:31.544Z,2.90
2017-10-24T02:37:57.839Z,2.42
2017-10-24T02:40:24.165Z,4.50
2017-10-24T02:42:50.539Z,2.70
2017-10-24T02:45:16.940Z,2.12
2017-10-24T02:47:43.317Z,2.55
2017-10-24T02:50:09.710Z,1.58
2017-10-24T02:52:36.061Z,2.85
2017-10-24T02:55:02.382Z,2.78
2017-10-24T02:57:28.805Z,7.25
2017-10-24T02:59:55.143Z,12.23
2017-10-24T03:02:21.527Z,2.85
2017-10-24T03:04:47.937Z,2.20
2017-10-24T03:07:14.235Z,2.67
2017-10-24T03:09:44.480Z,1.95
2017-10-24T03:12:13.940Z,2.70
2017-10-24T03:14:40.303Z,1.60
2017-10-24T03:17:06.607Z,1.12
2017-10-24T03:19:32.938Z,1.58
2017-10-24T03:21:59.277Z,1.15
2017-10-24T03:24:25.635Z,1.42
2017-10-24T03:26:52.045Z,1.70
2017-10-24T03:29:18.369Z,2.70
2017-10-24T03:31:44.716Z,0.82
2017-10-24T03:34:11.044Z,1.95
2017-10-24T03:36:37.369Z,0.80
2017-10-24T03:39:03.686Z,1.33
2017-10-24T03:41:30.057Z,2.05
2017-10-24T03:43:56.365Z,1.00
2017-10-24T03:46:22.754Z,1.42
2017-10-24T03:48:49.040Z,1.08
2017-10-24T03:51:15.347Z,1.67
2017-10-24T03:53:41.624Z,0.88
2017-10-24T03:56:07.932Z,0.60
2017-10-24T03:58:34.269Z,1.08
2017-10-24T04:01:00.594Z,1.12
2017-10-24T04:03:27.032Z,1.17
2017-10-24T04:05:53.361Z,0.68
2017-10-24T04:08:19.692Z,0.80
2017-10-24T04:10:45.957Z,1.10
2017-10-24T04:13:12.233Z,1.00
2017-10-24T04:15:38.573Z,0.95
2017-10-24T04:18:04.942Z,0.90
2017-10-24T04:20:31.236Z,0.88
2017-10-24T04:22:57.594Z,1.05
2017-10-24T04:25:23.905Z,0.80
2017-10-24T04:27:50.230Z,0.93
2017-10-24T04:30:16.566Z,0.90
2017-10-24T04:32:42.914Z,1.60
2017-10-24T04:35:09.243Z,0.93
2017-10-24T04:37:35.689Z,1.10
2017-10-24T04:40:02.022Z,7.32
2017-10-24T04:42:28.352Z,0.90
2017-10-24T04:44:54.665Z,0.70
2017-10-24T04:47:20.999Z,1.00
2017-10-24T04:49:47.336Z,1.30
2017-10-24T04:52:13.680Z,1.30
2017-10-24T04:54:39.992Z,5.22
2017-10-24T04:57:06.315Z,1.55
2017-10-24T04:59:32.663Z,1.00
2017-10-24T05:01:58.975Z,0.70
2017-10-24T05:04:25.311Z,1.45
2017-10-24T05:06:51.639Z,1.10
2017-10-24T05:09:17.973Z,1.00
2017-10-24T05:11:44.313Z,1.30
2017-10-24T05:14:10.640Z,0.80
2017-10-24T05:16:36.971Z,3.90
2017-10-24T05:19:03.291Z,0.80
2017-10-24T05:21:29.649Z,1.05
2017-10-24T05:23:56.061Z,2.15
2017-10-24T05:26:22.419Z,0.90
2017-10-24T05:28:48.734Z,3.10
2017-10-24T05:31:15.086Z,0.95
2017-10-24T05:33:41.409Z,1.70
2017-10-24T05:36:07.686Z,2.72
2017-10-24T05:38:33.970Z,1.15
2017-10-24T05:41:00.305Z,0.90
2017-10-24T05:43:26.662Z,1.55
2017-10-24T05:45:52.984Z,1.37
2017-10-24T05:48:19.305Z,1.20
2017-10-24T05:50:45.606Z,1.10
2017-10-24T05:53:11.881Z,2.47
2017-10-24T05:55:38.215Z,1.37
2017-10-24T05:58:04.511Z,2.15
2017-10-24T06:00:30.881Z,2.45
2017-10-24T06:02:57.190Z,2.40
2017-10-24T06:05:23.509Z,1.80
2017-10-24T06:07:49.876Z,3.83
2017-10-24T06:10:16.183Z,1.80
2017-10-24T06:12:42.542Z,11.68
2017-10-24T06:15:08.857Z,1.50
2017-10-24T06:17:35.190Z,1.23
2017-10-24T06:20:01.424Z,1.52
2017-10-24T06:22:27.755Z,1.98
2017-10-24T06:24:54.224Z,2.37
2017-10-24T06:27:20.508Z,1.20
2017-10-24T06:29:46.833Z,2.20
2017-10-24T06:32:13.178Z,2.22
2017-10-24T06:34:39.500Z,1.60
2017-10-24T06:37:05.794Z,2.65
2017-10-24T06:39:32.089Z,2.55
2017-10-24T06:41:58.400Z,2.92
2017-10-24T06:44:24.718Z,6.90
2017-10-24T06:46:51.081Z,8.38
2017-10-24T06:49:17.411Z,3.55
2017-10-24T06:51:43.730Z,4.00
2017-10-24T06:54:10.063Z,2.25
2017-10-24T06:56:36.407Z,1.35
2017-10-24T06:59:02.696Z,1.50
2017-10-24T07:01:29.020Z,1.35
2017-10-24T07:03:55.241Z,1.92
2017-10-24T07:06:21.461Z,2.15
2017-10-24T07:08:47.696Z,1.52
2017-10-24T07:11:13.951Z,1.20
2017-10-24T07:13:40.286Z,2.20
2017-10-24T07:16:06.578Z,1.80
2017-10-24T07:18:32.819Z,1.40
2017-10-24T07:20:59.049Z,1.60
2017-10-24T07:23:25.293Z,2.15
2017-10-24T07:25:51.769Z,1.70
2017-10-24T07:28:18.026Z,1.62
2017-10-24T07:30:44.272Z,2.45
2017-10-24T07:33:10.521Z,1.80
2017-10-24T07:35:36.844Z,2.22
2017-10-24T07:38:03.176Z,1.80
2017-10-24T07:40:29.425Z,1.87
2017-10-24T07:42:55.662Z,1.90
2017-10-24T07:45:21.883Z,1.50
2017-10-24T07:47:48.088Z,1.10
2017-10-24T07:50:14.340Z,1.37
2017-10-24T07:52:40.530Z,1.08
2017-10-24T07:55:06.726Z,1.77
2017-10-24T07:57:32.923Z,1.33
2017-10-24T07:59:59.151Z,1.15
2017-10-24T08:02:25.408Z,0.90
2017-10-24T08:04:51.609Z,1.00
2017-10-24T08:07:17.829Z,1.60
2017-10-24T08:09:44.083Z,1.42
2017-10-24T08:12:10.291Z,1.62
2017-10-24T08:14:36.571Z,1.20
2017-10-24T08:17:02.856Z,0.73
2017-10-24T08:19:29.090Z,1.30
2017-10-24T08:21:55.318Z,2.95
2017-10-24T08:24:21.517Z,1.40
2017-10-24T08:26:47.887Z,1.37
2017-10-24T08:29:14.113Z,1.58
2017-10-24T08:31:40.445Z,1.62
2017-10-24T08:34:06.673Z,1.67
2017-10-24T08:36:33.079Z,1.50
2017-10-24T08:38:59.435Z,1.42
2017-10-24T08:41:25.651Z,1.95
2017-10-24T08:43:51.891Z,1.62
2017-10-24T08:46:18.133Z,1.62
2017-10-24T08:48:45.196Z,2.05
2017-10-24T08:51:10.613Z,1.90
2017-10-24T08:53:36.924Z,1.90
2017-10-24T08:56:03.252Z,1.60
2017-10-24T08:58:29.323Z,1.90
2017-10-24T09:00:55.549Z,1.60
2017-10-24T09:03:21.844Z,4.20
2017-10-24T09:05:48.054Z,1.95
2017-10-24T09:08:14.286Z,3.58
2017-10-24T09:10:40.508Z,3.00
2017-10-24T09:13:06.736Z,2.85
2017-10-24T09:15:33.100Z,3.33
2017-10-24T09:17:59.389Z,6.43
2017-10-24T09:20:25.626Z,4.12
2017-10-24T09:22:51.876Z,4.12
2017-10-24T09:25:18.120Z,3.20
2017-10-24T09:27:44.441Z,3.62
2017-10-24T09:30:10.792Z,2.17
2017-10-24T09:32:37.099Z,3.97
2017-10-24T09:35:03.339Z,4.18
2017-10-24T09:37:29.558Z,3.42
2017-10-24T09:39:55.901Z,2.25
2017-10-24T09:42:22.171Z,2.45
2017-10-24T09:44:48.469Z,3.53
2017-10-24T09:47:14.774Z,2.50
2017-10-24T09:49:41.006Z,1.87
2017-10-24T09:52:07.349Z,2.25
2017-10-24T09:54:33.603Z,2.78
2017-10-24T09:56:59.913Z,1.90
2017-10-24T09:59:26.128Z,2.10
2017-10-24T10:01:52.377Z,7.55
2017-10-24T10:04:18.786Z,1.58
2017-10-24T10:06:45.032Z,3.08
2017-10-24T10:09:11.275Z,1.98
2017-10-24T10:11:37.485Z,2.45
2017-10-24T10:14:03.725Z,3.72
2017-10-24T10:16:30.069Z,2.03
2017-10-24T10:18:56.313Z,2.92
2017-10-24T10:21:22.615Z,2.40
2017-10-24T10:23:48.851Z,2.95
2017-10-24T10:26:15.190Z,9.13
2017-10-24T10:28:41.502Z,4.53
2017-10-24T10:31:07.741Z,6.07
2017-10-24T10:33:33.985Z,5.30
2017-10-24T10:36:00.313Z,4.18
2017-10-24T10:38:26.518Z,4.70
2017-10-24T10:40:52.852Z,5.05
2017-10-24T10:43:19.081Z,4.40
2017-10-24T10:45:45.353Z,3.15
2017-10-24T10:48:11.652Z,5.97
2017-10-24T10:50:37.953Z,6.43
2017-10-24T10:53:04.235Z,6.93
2017-10-24T10:55:30.564Z,11.75
2017-10-24T10:57:56.879Z,6.62
2017-10-24T11:00:23.219Z,6.78
2017-10-24T11:02:49.424Z,9.15
2017-10-24T11:05:15.653Z,9.80
2017-10-24T11:07:41.948Z,9.68
2017-10-24T11:10:08.239Z,14.20
2017-10-24T11:12:34.561Z,11.38
2017-10-24T11:15:08.575Z,9.52
2017-10-24T11:17:34.804Z,8.60
2017-10-24T11:20:01.014Z,8.68
2017-10-24T11:22:27.232Z,10.65
2017-10-24T11:24:53.434Z,9.32
2017-10-24T11:27:19.614Z,9.43
2017-10-24T11:29:45.863Z,6.05
2017-10-24T11:32:12.083Z,8.55
2017-10-24T11:34:38.294Z,10.30
2017-10-24T11:37:04.507Z,7.78
2017-10-24T11:39:30.700Z,8.10
2017-10-24T11:41:56.935Z,10.38
2017-10-24T11:44:23.139Z,7.55
2017-10-24T11:46:49.366Z,8.85
2017-10-24T11:49:15.581Z,7.65
2017-10-24T11:51:41.803Z,7.45
2017-10-24T11:54:08.086Z,8.15
2017-10-24T11:56:34.333Z,5.30
2017-10-24T11:59:00.535Z,4.07
2017-10-24T12:01:26.810Z,5.53
2017-10-24T12:03:53.047Z,5.93
2017-10-24T12:06:19.265Z,6.82
2017-10-24T12:08:45.500Z,6.03
2017-10-24T12:11:11.697Z,7.32
2017-10-24T12:13:37.886Z,9.30
2017-10-24T12:16:04.126Z,7.57
2017-10-24T12:18:30.361Z,4.03
2017-10-24T12:20:56.654Z,3.50
2017-10-24T12:23:22.853Z,8.02
2017-10-24T12:25:49.032Z,5.82
2017-10-24T12:28:15.238Z,7.07
2017-10-24T12:30:41.479Z,8.98
2017-10-24T12:33:07.672Z,7.87
2017-10-24T12:35:33.861Z,4.97
2017-10-24T12:38:00.087Z,6.87
2017-10-24T12:40:26.299Z,5.55
2017-10-24T12:42:52.531Z,8.45
2017-10-24T12:45:18.759Z,7.93
2017-10-24T12:47:45.004Z,6.90
2017-10-24T12:50:11.208Z,10.70
2017-10-24T12:52:37.463Z,7.07
2017-10-24T12:55:03.769Z,9.40
2017-10-24T12:57:30.008Z,9.43
2017-10-24T12:59:56.248Z,5.43
2017-10-24T13:02:22.476Z,10.50
2017-10-24T13:04:48.722Z,5.35
2017-10-24T13:07:15.119Z,5.72
2017-10-24T13:09:41.376Z,9.40
2017-10-24T13:12:07.606Z,8.63
2017-10-24T13:14:33.947Z,6.97
2017-10-24T13:17:00.201Z,6.68
2017-10-24T13:19:26.498Z,17.17
2017-10-24T13:21:52.834Z,7.22
2017-10-24T13:24:19.052Z,7.10
2017-10-24T13:26:45.299Z,5.53
2017-10-24T13:29:11.507Z,6.95
2017-10-24T13:31:37.743Z,16.20
2017-10-24T13:34:04.133Z,13.00
2017-10-24T13:36:30.421Z,11.95
2017-10-24T13:38:56.627Z,14.40
2017-10-24T13:41:22.868Z,14.70
2017-10-24T13:43:49.111Z,9.18
2017-10-24T13:46:15.433Z,10.65
2017-10-24T13:48:41.682Z,10.77
2017-10-24T13:51:08.007Z,8.15
2017-10-24T13:53:34.238Z,12.98
2017-10-24T13:56:00.438Z,11.40
2017-10-24T13:58:26.788Z,10.27
2017-10-24T14:00:53.037Z,9.57
2017-10-24T14:03:19.386Z,8.35
2017-10-24T14:05:45.671Z,9.55
2017-10-24T14:08:11.929Z,10.63
2017-10-24T14:10:38.264Z,12.50
2017-10-24T14:13:04.604Z,8.57
2017-10-24T14:15:30.919Z,9.30
2017-10-24T14:17:57.144Z,6.60
2017-10-24T14:20:23.466Z,10.27
2017-10-24T14:22:49.887Z,6.70
2017-10-24T14:25:16.228Z,7.80
2017-10-24T14:27:42.473Z,5.87
2017-10-24T14:30:08.789Z,7.37
2017-10-24T14:32:35.026Z,11.38
2017-10-24T14:35:01.381Z,28.27
2017-10-24T14:37:27.705Z,10.43
2017-10-24T14:39:53.954Z,9.60
2017-10-24T14:42:20.178Z,9.88
2017-10-24T14:44:46.490Z,8.85
2017-10-24T14:47:12.845Z,9.10
2017-10-24T14:49:39.158Z,4.47
2017-10-24T14:52:05.483Z,15.00
2017-10-24T14:54:31.702Z,9.50
2017-10-24T14:56:57.964Z,9.57
2017-10-24T14:59:24.282Z,9.63
2017-10-24T15:01:50.535Z,9.25
2017-10-24T15:04:17.338Z,7.53
2017-10-24T15:06:43.654Z,6.45
2017-10-24T15:09:09.925Z,13.80
2017-10-24T15:11:36.159Z,14.98
2017-10-24T15:14:02.475Z,8.30
2017-10-24T15:16:28.833Z,8.70
2017-10-24T15:18:55.157Z,12.65
2017-10-24T15:21:21.368Z,8.40
2017-10-24T15:23:47.694Z,4.87
2017-10-24T15:26:13.942Z,7.37
2017-10-24T15:28:40.260Z,10.65
2017-10-24T15:31:06.473Z,5.78
2017-10-24T15:33:32.690Z,10.07
2017-10-24T15:35:58.936Z,6.93
2017-10-24T15:38:25.184Z,9.82
2017-10-24T15:40:51.572Z,6.40
2017-10-24T15:43:17.850Z,5.68
2017-10-24T15:45:44.214Z,4.37
2017-10-24T15:48:10.519Z,5.62
2017-10-24T15:50:36.835Z,3.80
2017-10-24T15:53:03.068Z,6.65
2017-10-24T15:55:29.321Z,8.00
2017-10-24T15:57:55.653Z,5.07
2017-10-24T16:00:21.959Z,4.20
2017-10-24T16:02:48.172Z,15.80
2017-10-24T16:05:14.416Z,12.35
2017-10-24T16:07:40.837Z,15.27
2017-10-24T16:10:07.189Z,6.32
2017-10-24T16:12:33.569Z,6.90
2017-10-24T16:14:59.858Z,4.25
2017-10-24T16:17:26.148Z,5.55
2017-10-24T16:19:52.404Z,4.25
2017-10-24T16:22:18.676Z,4.40
2017-10-24T16:24:45.832Z,3.47
2017-10-24T16:27:12.233Z,4.93
2017-10-24T16:29:41.098Z,3.50
2017-10-24T16:32:13.686Z,3.15
2017-10-24T16:34:42.583Z,4.72
2017-10-24T16:37:08.937Z,6.53
2017-10-24T16:39:35.264Z,2.50
2017-10-24T16:42:02.541Z,5.35
2017-10-24T16:44:28.870Z,3.83
2017-10-24T16:46:55.261Z,4.57
2017-10-24T16:49:21.623Z,4.95
2017-10-24T16:51:47.852Z,6.15
2017-10-24T16:54:14.105Z,6.55
2017-10-24T16:56:41.678Z,3.92
2017-10-24T16:59:11.629Z,4.62
2017-10-24T17:01:40.395Z,3.28
2017-10-24T17:04:06.728Z,3.40
2017-10-24T17:06:33.007Z,6.57
2017-10-24T17:08:59.220Z,2.90
2017-10-24T17:11:25.466Z,3.95
2017-10-24T17:13:51.820Z,4.97
2017-10-24T17:16:18.133Z,7.03
2017-10-24T17:18:44.468Z,11.15
2017-10-24T17:21:10.804Z,6.00
2017-10-24T17:23:37.793Z,4.12
2017-10-24T17:26:04.473Z,4.22
2017-10-24T17:28:30.698Z,7.57
2017-10-24T17:30:56.934Z,7.22
2017-10-24T17:33:23.192Z,5.00
2017-10-24T17:35:49.497Z,5.32
2017-10-24T17:38:15.830Z,4.87
2017-10-24T17:40:42.055Z,7.70
2017-10-24T17:43:08.299Z,3.17
2017-10-24T17:45:34.529Z,9.15
2017-10-24T17:48:01.100Z,12.65
2017-10-24T17:50:27.412Z,12.52
2017-10-24T17:52:53.724Z,6.80
2017-10-24T17:55:20.151Z,3.72
2017-10-24T17:57:46.390Z,5.05
2017-10-24T18:00:12.596Z,6.05
2017-10-24T18:02:38.951Z,6.15
2017-10-24T18:05:05.172Z,4.05
2017-10-24T18:07:31.398Z,4.72
2017-10-24T18:09:57.634Z,4.47
2017-10-24T18:12:23.871Z,8.30
2017-10-24T18:14:50.210Z,7.82
2017-10-24T18:17:17.110Z,12.32
2017-10-24T18:19:43.318Z,13.40
2017-10-24T18:22:09.698Z,9.18
2017-10-24T18:24:35.908Z,6.57
2017-10-24T18:27:02.155Z,11.18
2017-10-24T18:29:28.440Z,8.45
2017-10-24T18:31:54.717Z,6.22
2017-10-24T18:34:21.037Z,7.93
2017-10-24T18:36:47.317Z,16.52
2017-10-24T18:39:13.614Z,21.30
2017-10-24T18:41:39.880Z,21.25
2017-10-24T18:44:06.191Z,11.63
2017-10-24T18:46:32.475Z,13.13
2017-10-24T18:48:58.893Z,15.52
2017-10-24T18:51:25.194Z,15.85
2017-10-24T18:53:51.581Z,7.28
2017-10-24T18:56:17.874Z,6.87
2017-10-24T18:58:44.176Z,8.00
2017-10-24T19:01:10.423Z,6.30
2017-10-24T19:03:36.765Z,8.35
2017-10-24T19:06:03.146Z,7.18
2017-10-24T19:08:29.404Z,5.25
2017-10-24T19:10:55.747Z,3.37
2017-10-24T19:13:22.094Z,2.03
2017-10-24T19:15:48.436Z,3.45
2017-10-24T19:18:14.852Z,9.10
2017-10-24T19:20:41.210Z,2.45
2017-10-24T19:23:07.639Z,1.45
2017-10-24T19:25:33.963Z,0.93
2017-10-24T19:28:00.261Z,0.90
2017-10-24T19:30:26.533Z,1.62
2017-10-24T19:32:52.826Z,1.65
2017-10-24T19:35:19.248Z,1.73
2017-10-24T19:37:45.517Z,2.37
2017-10-24T19:40:11.738Z,1.23
2017-10-24T19:42:37.951Z,1.00
2017-10-24T19:45:04.217Z,1.00
2017-10-24T19:47:30.532Z,1.02
2017-10-24T19:49:57.208Z,1.10
2017-10-24T19:52:23.489Z,1.30
2017-10-24T19:54:49.815Z,2.47
2017-10-24T19:57:16.027Z,0.80
2017-10-24T19:59:42.388Z,1.87
2017-10-24T20:02:08.584Z,1.20
2017-10-24T20:04:34.838Z,1.73
2017-10-24T20:07:01.182Z,2.95
2017-10-24T20:09:27.515Z,1.30
2017-10-24T20:11:53.870Z,0.85
2017-10-24T20:14:20.156Z,1.65
2017-10-24T20:16:46.349Z,1.55
2017-10-24T20:19:12.589Z,1.20
2017-10-24T20:21:38.841Z,1.10
2017-10-24T20:24:05.103Z,1.20
2017-10-24T20:26:31.418Z,2.37
2017-10-24T20:28:57.924Z,1.52
2017-10-24T20:31:24.200Z,1.98
2017-10-24T20:33:50.548Z,1.33
2017-10-24T20:36:16.853Z,2.15
2017-10-24T20:38:43.091Z,1.85
2017-10-24T20:41:09.418Z,1.65
2017-10-24T20:43:35.721Z,1.33
2017-10-24T20:46:01.968Z,1.60
2017-10-24T20:48:28.180Z,1.20
2017-10-24T20:50:54.405Z,1.15
2017-10-24T20:53:20.622Z,3.22
2017-10-24T20:55:46.890Z,1.77
2017-10-24T20:58:13.137Z,1.52
2017-10-24T21:00:39.448Z,2.92
2017-10-24T21:03:05.681Z,1.70
2017-10-24T21:05:31.894Z,2.20
2017-10-24T21:07:58.238Z,6.28
2017-10-24T21:10:24.460Z,1.92
2017-10-24T21:12:50.705Z,1.60
2017-10-24T21:15:16.928Z,1.92
2017-10-24T21:17:43.145Z,4.57
2017-10-24T21:20:09.484Z,2.12
2017-10-24T21:22:35.726Z,2.22
2017-10-24T21:25:01.957Z,2.15
2017-10-24T21:27:28.184Z,1.52
2017-10-24T21:29:54.403Z,2.45
2017-10-24T21:32:20.732Z,3.00
2017-10-24T21:34:46.979Z,2.72
2017-10-24T21:37:13.190Z,1.80
2017-10-24T21:39:39.407Z,2.33
2017-10-24T21:42:05.672Z,2.10
2017-10-24T21:44:31.973Z,3.20
2017-10-24T21:46:58.212Z,3.12
2017-10-24T21:49:24.449Z,1.25
2017-10-24T21:51:50.825Z,3.00
2017-10-24T21:54:17.111Z,2.08
2017-10-24T21:56:43.446Z,5.07
2017-10-24T21:59:09.649Z,2.33
2017-10-24T22:01:35.905Z,2.47
2017-10-24T22:04:02.145Z,4.65
2017-10-24T22:06:28.382Z,2.95
2017-10-24T22:08:54.704Z,3.10
2017-10-24T22:11:20.936Z,4.70
2017-10-24T22:13:47.148Z,4.43
2017-10-24T22:16:13.436Z,2.28
2017-10-24T22:18:39.730Z,1.40
2017-10-24T22:21:06.053Z,3.20
2017-10-24T22:23:32.294Z,2.37
2017-10-24T22:25:58.599Z,5.03
2017-10-24T22:28:24.829Z,10.65
2017-10-24T22:30:51.071Z,1.65
2017-10-24T22:33:17.379Z,2.37
2017-10-24T22:35:43.635Z,2.10
2017-10-24T22:38:09.853Z,2.40
2017-10-24T22:40:36.083Z,2.00
2017-10-24T22:43:02.310Z,1.30
2017-10-24T22:45:28.644Z,5.10
2017-10-24T22:47:54.870Z,7.50
2017-10-24T22:50:21.097Z,2.70
2017-10-24T22:52:47.319Z,2.53
2017-10-24T22:55:13.555Z,1.92
2017-10-24T22:57:39.909Z,2.12
2017-10-24T23:00:06.120Z,3.25
2017-10-24T23:02:32.345Z,1.77
2017-10-24T23:04:58.599Z,2.80
2017-10-24T23:07:24.819Z,2.95
2017-10-24T23:09:51.149Z,2.28
2017-10-24T23:12:17.389Z,1.75
2017-10-24T23:14:43.621Z,3.50
2017-10-24T23:17:09.842Z,2.90
2017-10-24T23:19:36.057Z,3.83
2017-10-24T23:22:02.308Z,3.65
2017-10-24T23:24:28.537Z,1.75
2017-10-24T23:26:54.751Z,2.30
2017-10-24T23:29:20.986Z,3.00
2017-10-24T23:31:47.204Z,4.30
2017-10-24T23:34:13.443Z,2.80
2017-10-24T23:36:39.683Z,2.95
2017-10-24T23:39:05.902Z,2.47
2017-10-24T23:41:32.129Z,1.87
2017-10-24T23:43:58.356Z,4.70
2017-10-24T23:46:24.586Z,1.70
2017-10-24T23:48:50.806Z,2.25
2017-10-24T23:51:17.084Z,2.28
2017-10-24T23:53:43.391Z,7.20
2017-10-24T23:56:09.628Z,3.08
2017-10-24T23:58:35.946Z,2.47
